sensor_id;sensor_type;location;lat;lon;timestamp;pressure;altitude;pressure_sealevel;temperature;humidity
72498;BME280;60522;52.536;5.702;2022-12-24T00:00:20;100468.19;;;18.32;53.36
72498;BME280;60522;52.536;5.702;2022-12-24T00:02:45;100483.81;;;18.35;53.28
72498;BME280;60522;52.536;5.702;2022-12-24T00:05:11;100479.09;;;18.32;53.45
72498;BME280;60522;52.536;5.702;2022-12-24T00:07:36;100476.81;;;18.34;53.25
72498;BME280;60522;52.536;5.702;2022-12-24T00:10:03;100495.88;;;18.34;53.39
72498;BME280;60522;52.536;5.702;2022-12-24T00:12:29;100464.53;;;18.21;53.33
72498;BME280;60522;52.536;5.702;2022-12-24T00:14:54;100493.91;;;18.34;53.39
72498;BME280;60522;52.536;5.702;2022-12-24T00:17:20;100491.97;;;18.35;53.41
72498;BME280;60522;52.536;5.702;2022-12-24T00:19:45;100473.06;;;18.19;53.34
72498;BME280;60522;52.536;5.702;2022-12-24T00:22:10;100496.28;;;18.36;53.29
72498;BME280;60522;52.536;5.702;2022-12-24T00:24:36;100489.25;;;18.35;53.28
72498;BME280;60522;52.536;5.702;2022-12-24T00:27:01;100493.91;;;18.34;53.14
72498;BME280;60522;52.536;5.702;2022-12-24T00:29:27;100457.69;;;18.07;53.29
72498;BME280;60522;52.536;5.702;2022-12-24T00:31:53;100491.97;;;18.35;53.44
72498;BME280;60522;52.536;5.702;2022-12-24T00:34:18;100502.88;;;18.35;53.38
72498;BME280;60522;52.536;5.702;2022-12-24T00:36:44;100497.41;;;18.35;53.39
72498;BME280;60522;52.536;5.702;2022-12-24T00:39:09;100507.53;;;18.34;53.31
72498;BME280;60522;52.536;5.702;2022-12-24T00:41:35;100498.88;;;18.29;53.44
72498;BME280;60522;52.536;5.702;2022-12-24T00:44:03;100520.78;;;18.36;53.51
72498;BME280;60522;52.536;5.702;2022-12-24T00:46:31;100519.19;;;18.35;53.52
72498;BME280;60522;52.536;5.702;2022-12-24T00:48:58;100516.78;;;18.30;53.31
72498;BME280;60522;52.536;5.702;2022-12-24T00:51:23;100529.31;;;18.34;53.46
72498;BME280;60522;52.536;5.702;2022-12-24T00:53:49;100528.59;;;18.38;53.33
72498;BME280;60522;52.536;5.702;2022-12-24T00:56:15;100524.28;;;18.37;53.35
72498;BME280;60522;52.536;5.702;2022-12-24T00:58:40;100508.06;;;18.21;53.35
72498;BME280;60522;52.536;5.702;2022-12-24T01:01:06;100531.66;;;18.36;53.36
72498;BME280;60522;52.536;5.702;2022-12-24T01:03:32;100531.25;;;18.34;53.51
72498;BME280;60522;52.536;5.702;2022-12-24T01:05:59;100546.06;;;18.37;53.44
72498;BME280;60522;52.536;5.702;2022-12-24T01:08:25;100553.44;;;18.36;53.50
72498;BME280;60522;52.536;5.702;2022-12-24T01:10:50;100554.22;;;18.37;53.38
72498;BME280;60522;52.536;5.702;2022-12-24T01:13:15;100568.28;;;18.39;53.39
72498;BME280;60522;52.536;5.702;2022-12-24T01:15:41;100569.44;;;18.38;53.44
72498;BME280;60522;52.536;5.702;2022-12-24T01:18:06;100571.38;;;18.37;53.47
72498;BME280;60522;52.536;5.702;2022-12-24T01:20:31;100553.63;;;18.24;53.45
72498;BME280;60522;52.536;5.702;2022-12-24T01:22:57;100575.22;;;18.36;53.52
72498;BME280;60522;52.536;5.702;2022-12-24T01:25:22;100594.28;;;18.36;53.42
72498;BME280;60522;52.536;5.702;2022-12-24T01:27:48;100597.78;;;18.37;53.48
72498;BME280;60522;52.536;5.702;2022-12-24T01:30:13;100575.41;;;18.24;53.45
72498;BME280;60522;52.536;5.702;2022-12-24T01:32:39;100605.25;;;18.40;53.50
72498;BME280;60522;52.536;5.702;2022-12-24T01:35:06;100593.75;;;18.27;53.51
72498;BME280;60522;52.536;5.702;2022-12-24T01:37:32;100599.44;;;18.22;53.33
72498;BME280;60522;52.536;5.702;2022-12-24T01:39:57;100618.78;;;18.36;53.44
72498;BME280;60522;52.536;5.702;2022-12-24T01:42:47;100625.09;;;18.40;53.89
72498;BME280;60522;52.536;5.702;2022-12-24T01:48:04;100633.19;;;18.37;53.45
72498;BME280;60522;52.536;5.702;2022-12-24T01:50:36;100635.13;;;18.36;53.55
72498;BME280;60522;52.536;5.702;2022-12-24T01:53:03;100646.44;;;18.38;53.57
72498;BME280;60522;52.536;5.702;2022-12-24T01:55:30;100647.16;;;18.35;53.55
72498;BME280;60522;52.536;5.702;2022-12-24T01:57:57;100646.81;;;18.37;53.55
72498;BME280;60522;52.536;5.702;2022-12-24T02:00:23;100658.50;;;18.37;53.51
72498;BME280;60522;52.536;5.702;2022-12-24T02:02:51;100654.97;;;18.37;53.67
72498;BME280;60522;52.536;5.702;2022-12-24T02:05:27;100661.22;;;18.37;53.78
72498;BME280;60522;52.536;5.702;2022-12-24T02:07:54;100669.75;;;18.35;53.63
72498;BME280;60522;52.536;5.702;2022-12-24T02:10:20;100654.56;;;18.34;53.58
72498;BME280;60522;52.536;5.702;2022-12-24T02:12:46;100649.41;;;18.29;53.45
72498;BME280;60522;52.536;5.702;2022-12-24T02:15:13;100667.44;;;18.38;53.62
72498;BME280;60522;52.536;5.702;2022-12-24T02:18:15;100669.81;;;18.39;54.02
72498;BME280;60522;52.536;5.702;2022-12-24T02:20:56;100681.06;;;18.38;53.59
72498;BME280;60522;52.536;5.702;2022-12-24T02:30:10;100693.09;;;18.37;54.07
72498;BME280;60522;52.536;5.702;2022-12-24T02:32:21;100684.13;;;18.36;53.89
72498;BME280;60522;52.536;5.702;2022-12-24T02:37:29;100679.06;;;18.34;53.90
72498;BME280;60522;52.536;5.702;2022-12-24T02:40:09;100685.00;;;18.21;53.91
72498;BME280;60522;52.536;5.702;2022-12-24T02:42:40;100703.19;;;18.36;53.88
72498;BME280;60522;52.536;5.702;2022-12-24T02:45:19;100709.41;;;18.37;54.01
72498;BME280;60522;52.536;5.702;2022-12-24T02:47:46;100719.97;;;18.38;53.48
72498;BME280;60522;52.536;5.702;2022-12-24T02:50:14;100658.84;;;17.96;53.56
72498;BME280;60522;52.536;5.702;2022-12-24T02:52:42;100735.88;;;18.36;53.86
72498;BME280;60522;52.536;5.702;2022-12-24T02:55:15;100706.78;;;18.21;53.92
72498;BME280;60522;52.536;5.702;2022-12-24T02:58:05;100739.38;;;18.37;54.11
72498;BME280;60522;52.536;5.702;2022-12-24T03:01:00;100747.53;;;18.37;54.00
72498;BME280;60522;52.536;5.702;2022-12-24T03:04:10;100738.59;;;18.36;54.01
72498;BME280;60522;52.536;5.702;2022-12-24T03:11:47;100755.72;;;18.37;53.81
72498;BME280;60522;52.536;5.702;2022-12-24T03:14:15;100751.44;;;18.35;53.63
72498;BME280;60522;52.536;5.702;2022-12-24T03:16:41;100753.00;;;18.37;53.61
72498;BME280;60522;52.536;5.702;2022-12-24T03:19:06;100722.75;;;18.22;53.65
72498;BME280;60522;52.536;5.702;2022-12-24T03:21:34;100747.53;;;18.37;53.69
72498;BME280;60522;52.536;5.702;2022-12-24T03:24:02;100755.34;;;18.38;53.67
72498;BME280;60522;52.536;5.702;2022-12-24T03:26:29;100747.47;;;18.33;53.69
72498;BME280;60522;52.536;5.702;2022-12-24T03:28:56;100749.91;;;18.38;53.71
72498;BME280;60522;52.536;5.702;2022-12-24T03:31:21;100749.13;;;18.38;53.53
72498;BME280;60522;52.536;5.702;2022-12-24T03:33:48;100754.16;;;18.35;53.70
72498;BME280;60522;52.536;5.702;2022-12-24T03:36:14;100768.97;;;18.38;53.51
72498;BME280;60522;52.536;5.702;2022-12-24T03:38:39;100763.47;;;18.34;53.71
72498;BME280;60522;52.536;5.702;2022-12-24T03:41:05;100772.50;;;18.39;53.61
72498;BME280;60522;52.536;5.702;2022-12-24T03:43:31;100768.97;;;18.38;53.65
72498;BME280;60522;52.536;5.702;2022-12-24T03:45:56;100769.78;;;18.39;53.73
72498;BME280;60522;52.536;5.702;2022-12-24T03:48:22;100777.22;;;18.42;53.61
72498;BME280;60522;52.536;5.702;2022-12-24T03:50:47;100774.06;;;18.40;53.61
72498;BME280;60522;52.536;5.702;2022-12-24T03:53:12;100762.31;;;18.35;53.74
72498;BME280;60522;52.536;5.702;2022-12-24T03:55:38;100768.53;;;18.36;53.80
72498;BME280;60522;52.536;5.702;2022-12-24T03:58:04;100776.06;;;18.43;53.81
72498;BME280;60522;52.536;5.702;2022-12-24T04:00:30;100775.75;;;18.44;53.66
72498;BME280;60522;52.536;5.702;2022-12-24T04:02:55;100775.38;;;18.46;53.72
72498;BME280;60522;52.536;5.702;2022-12-24T04:05:20;100783.56;;;18.46;53.80
72498;BME280;60522;52.536;5.702;2022-12-24T04:07:46;100761.44;;;18.31;53.79
72498;BME280;60522;52.536;5.702;2022-12-24T04:10:12;100797.94;;;18.46;53.73
72498;BME280;60522;52.536;5.702;2022-12-24T04:12:38;100782.03;;;18.48;53.61
72498;BME280;60522;52.536;5.702;2022-12-24T04:15:05;100774.88;;;18.40;53.80
72498;BME280;60522;52.536;5.702;2022-12-24T04:17:30;100785.91;;;18.47;53.78
72498;BME280;60522;52.536;5.702;2022-12-24T04:19:56;100786.69;;;18.48;53.72
72498;BME280;60522;52.536;5.702;2022-12-24T04:22:21;100792.91;;;18.48;53.87
72498;BME280;60522;52.536;5.702;2022-12-24T04:24:47;100795.75;;;18.52;53.91
72498;BME280;60522;52.536;5.702;2022-12-24T04:27:13;100792.56;;;18.50;53.92
72498;BME280;60522;52.536;5.702;2022-12-24T04:29:39;100797.66;;;18.51;53.98
72498;BME280;60522;52.536;5.702;2022-12-24T04:32:04;100801.91;;;18.49;54.05
72498;BME280;60522;52.536;5.702;2022-12-24T04:34:29;100809.78;;;18.54;53.92
72498;BME280;60522;52.536;5.702;2022-12-24T04:36:55;100809.34;;;18.52;54.11
72498;BME280;60522;52.536;5.702;2022-12-24T04:39:20;100796.56;;;18.37;54.01
72498;BME280;60522;52.536;5.702;2022-12-24T04:41:46;100824.16;;;18.55;53.93
72498;BME280;60522;52.536;5.702;2022-12-24T04:44:11;100821.44;;;18.55;54.03
72498;BME280;60522;52.536;5.702;2022-12-24T04:46:36;100820.31;;;18.56;54.20
72498;BME280;60522;52.536;5.702;2022-12-24T04:49:02;100821.09;;;18.56;54.20
72498;BME280;60522;52.536;5.702;2022-12-24T04:51:28;100810.06;;;18.49;54.13
72498;BME280;60522;52.536;5.702;2022-12-24T04:53:54;100810.56;;;18.55;54.17
72498;BME280;60522;52.536;5.702;2022-12-24T04:56:23;100802.25;;;18.47;54.30
72498;BME280;60522;52.536;5.702;2022-12-24T04:58:49;100824.63;;;18.57;54.24
72498;BME280;60522;52.536;5.702;2022-12-24T05:01:23;100822.31;;;18.59;54.41
72498;BME280;60522;52.536;5.702;2022-12-24T05:03:49;100819.19;;;18.57;54.38
72498;BME280;60522;52.536;5.702;2022-12-24T05:06:18;100810.19;;;18.56;54.53
72498;BME280;60522;52.536;5.702;2022-12-24T05:08:44;100805.09;;;18.55;54.29
72498;BME280;60522;52.536;5.702;2022-12-24T05:11:09;100811.38;;;18.55;54.19
72498;BME280;60522;52.536;5.702;2022-12-24T05:13:38;100821.91;;;18.57;54.37
72498;BME280;60522;52.536;5.702;2022-12-24T05:16:04;100825.03;;;18.59;54.41
72498;BME280;60522;52.536;5.702;2022-12-24T05:18:29;100834.81;;;18.60;54.28
72498;BME280;60522;52.536;5.702;2022-12-24T05:20:54;100844.56;;;18.61;54.45
72498;BME280;60522;52.536;5.702;2022-12-24T05:23:22;100838.25;;;18.57;54.73
72498;BME280;60522;52.536;5.702;2022-12-24T05:26:29;100841.38;;;18.59;55.21
72498;BME280;60522;52.536;5.702;2022-12-24T05:28:57;100833.66;;;18.61;54.69
72498;BME280;60522;52.536;5.702;2022-12-24T05:31:24;100820.97;;;18.49;54.64
72498;BME280;60522;52.536;5.702;2022-12-24T05:33:50;100841.38;;;18.59;54.50
72498;BME280;60522;52.536;5.702;2022-12-24T05:36:16;100843.75;;;18.60;54.54
72498;BME280;60522;52.536;5.702;2022-12-24T05:38:41;100849.66;;;18.62;54.59
72498;BME280;60522;52.536;5.702;2022-12-24T05:41:07;100848.78;;;18.58;54.66
72498;BME280;60522;52.536;5.702;2022-12-24T05:43:36;100852.38;;;18.62;54.72
72498;BME280;60522;52.536;5.702;2022-12-24T05:46:05;100855.88;;;18.63;55.01
72498;BME280;60522;52.536;5.702;2022-12-24T05:48:31;100830.25;;;18.48;54.56
72498;BME280;60522;52.536;5.702;2022-12-24T05:50:56;100854.75;;;18.64;54.71
72498;BME280;60522;52.536;5.702;2022-12-24T05:53:22;100858.59;;;18.63;54.84
72498;BME280;60522;52.536;5.702;2022-12-24T05:55:48;100826.41;;;18.49;54.70
72498;BME280;60522;52.536;5.702;2022-12-24T05:58:13;100853.16;;;18.63;54.76
72498;BME280;60522;52.536;5.702;2022-12-24T06:00:39;100857.84;;;18.62;54.80
72498;BME280;60522;52.536;5.702;2022-12-24T06:03:04;100841.59;;;18.50;54.74
72498;BME280;60522;52.536;5.702;2022-12-24T06:05:30;100847.72;;;18.63;54.80
72498;BME280;60522;52.536;5.702;2022-12-24T06:07:55;100830.25;;;18.48;54.92
72498;BME280;60522;52.536;5.702;2022-12-24T06:10:21;100856.66;;;18.63;54.88
72498;BME280;60522;52.536;5.702;2022-12-24T06:12:46;100861.34;;;18.63;54.95
72498;BME280;60522;52.536;5.702;2022-12-24T06:15:12;100854.28;;;18.62;55.06
72498;BME280;60522;52.536;5.702;2022-12-24T06:17:37;100861.69;;;18.61;54.98
72498;BME280;60522;52.536;5.702;2022-12-24T06:20:03;100848.69;;;18.55;55.12
72498;BME280;60522;52.536;5.702;2022-12-24T06:22:28;100859.31;;;18.60;55.05
72498;BME280;60522;52.536;5.702;2022-12-24T06:24:54;100876.19;;;18.65;55.17
72498;BME280;60522;52.536;5.702;2022-12-24T06:27:19;100876.19;;;18.65;55.16
72498;BME280;60522;52.536;5.702;2022-12-24T06:29:45;100881.63;;;18.65;55.21
72498;BME280;60522;52.536;5.702;2022-12-24T06:32:10;100879.69;;;18.66;55.36
72498;BME280;60522;52.536;5.702;2022-12-24T06:34:36;100885.13;;;18.66;55.39
72498;BME280;60522;52.536;5.702;2022-12-24T06:37:01;100880.03;;;18.64;55.17
72498;BME280;60522;52.536;5.702;2022-12-24T06:39:26;100896.03;;;18.66;55.39
72498;BME280;60522;52.536;5.702;2022-12-24T06:41:52;100896.03;;;18.66;55.38
72498;BME280;60522;52.536;5.702;2022-12-24T06:44:17;100895.59;;;18.64;55.50
72498;BME280;60522;52.536;5.702;2022-12-24T06:46:43;100902.63;;;18.65;55.46
72498;BME280;60522;52.536;5.702;2022-12-24T06:49:08;100870.69;;;18.46;55.50
72498;BME280;60522;52.536;5.702;2022-12-24T06:51:33;100885.31;;;18.57;55.64
72498;BME280;60522;52.536;5.702;2022-12-24T06:53:59;100901.13;;;18.67;55.57
72498;BME280;60522;52.536;5.702;2022-12-24T06:56:24;100909.66;;;18.66;56.00
72498;BME280;60522;52.536;5.702;2022-12-24T06:58:50;100916.22;;;18.65;55.68
72498;BME280;60522;52.536;5.702;2022-12-24T07:01:16;100890.25;;;18.51;55.77
72498;BME280;60522;52.536;5.702;2022-12-24T07:03:43;100919.78;;;18.65;55.73
72498;BME280;60522;52.536;5.702;2022-12-24T07:06:23;100896.84;;;18.50;56.90
72498;BME280;60522;52.536;5.702;2022-12-24T07:08:48;100916.59;;;18.63;55.80
72498;BME280;60522;52.536;5.702;2022-12-24T07:11:14;100900.09;;;18.56;55.81
72498;BME280;60522;52.536;5.702;2022-12-24T07:13:39;100922.91;;;18.67;55.67
72498;BME280;60522;52.536;5.702;2022-12-24T07:16:05;100922.50;;;18.65;55.78
72498;BME280;60522;52.536;5.702;2022-12-24T07:18:31;100921.69;;;18.65;55.83
72498;BME280;60522;52.536;5.702;2022-12-24T07:20:57;100932.56;;;18.65;55.73
72498;BME280;60522;52.536;5.702;2022-12-24T07:23:22;100920.22;;;18.51;55.91
72498;BME280;60522;52.536;5.702;2022-12-24T07:25:48;100936.91;;;18.66;55.87
72498;BME280;60522;52.536;5.702;2022-12-24T07:28:13;100919.44;;;18.51;55.88
72498;BME280;60522;52.536;5.702;2022-12-24T07:30:38;100945.06;;;18.66;55.89
72498;BME280;60522;52.536;5.702;2022-12-24T07:33:04;100942.16;;;18.59;56.06
72498;BME280;60522;52.536;5.702;2022-12-24T07:35:29;100952.81;;;18.64;55.81
72498;BME280;60522;52.536;5.702;2022-12-24T07:37:55;100961.41;;;18.66;55.91
72498;BME280;60522;52.536;5.702;2022-12-24T07:40:20;100964.13;;;18.66;56.07
72498;BME280;60522;52.536;5.702;2022-12-24T07:42:45;100959.03;;;18.64;56.02
72498;BME280;60522;52.536;5.702;2022-12-24T07:45:11;100963.34;;;18.65;55.92
72498;BME280;60522;52.536;5.702;2022-12-24T07:47:36;100964.50;;;18.64;55.89
72498;BME280;60522;52.536;5.702;2022-12-24T07:50:03;100954.47;;;18.52;56.21
72498;BME280;60522;52.536;5.702;2022-12-24T07:52:29;100976.97;;;18.65;55.93
72498;BME280;60522;52.536;5.702;2022-12-24T07:54:54;100976.63;;;18.67;56.03
72498;BME280;60522;52.536;5.702;2022-12-24T07:57:20;100973.00;;;18.63;56.07
72498;BME280;60522;52.536;5.702;2022-12-24T07:59:45;100980.47;;;18.66;56.00
72498;BME280;60522;52.536;5.702;2022-12-24T08:02:10;100991.72;;;18.64;56.21
72498;BME280;60522;52.536;5.702;2022-12-24T08:04:36;100973.19;;;18.54;56.17
72498;BME280;60522;52.536;5.702;2022-12-24T08:07:05;100987.88;;;18.65;56.77
72498;BME280;60522;52.536;5.702;2022-12-24T08:09:32;100984.63;;;18.60;56.02
72498;BME280;60522;52.536;5.702;2022-12-24T08:11:58;101007.38;;;18.67;56.16
72498;BME280;60522;52.536;5.702;2022-12-24T08:14:23;100987.16;;;18.52;56.15
72498;BME280;60522;52.536;5.702;2022-12-24T08:16:49;100990.25;;;18.51;56.31
72498;BME280;60522;52.536;5.702;2022-12-24T08:19:14;101019.75;;;18.65;56.10
72498;BME280;60522;52.536;5.702;2022-12-24T08:21:40;101026.09;;;18.69;56.27
72498;BME280;60522;52.536;5.702;2022-12-24T08:24:05;101038.47;;;18.66;56.20
72498;BME280;60522;52.536;5.702;2022-12-24T08:26:30;101037.34;;;18.67;56.29
72498;BME280;60522;52.536;5.702;2022-12-24T08:28:56;101030.66;;;18.65;56.39
72498;BME280;60522;52.536;5.702;2022-12-24T08:31:21;101008.78;;;18.45;56.47
72498;BME280;60522;52.536;5.702;2022-12-24T08:33:48;101021.78;;;18.52;56.82
72498;BME280;60522;52.536;5.702;2022-12-24T08:36:14;101047.44;;;18.67;56.39
72498;BME280;60522;52.536;5.702;2022-12-24T08:38:39;101049.81;;;18.68;56.42
72498;BME280;60522;52.536;5.702;2022-12-24T08:41:04;101043.56;;;18.68;56.51
72498;BME280;60522;52.536;5.702;2022-12-24T08:43:30;101054.09;;;18.69;56.46
72498;BME280;60522;52.536;5.702;2022-12-24T08:46:01;101056.75;;;18.66;57.38
72498;BME280;60522;52.536;5.702;2022-12-24T08:48:26;101065.34;;;18.68;56.58
72498;BME280;60522;52.536;5.702;2022-12-24T08:50:52;101035.31;;;18.48;56.54
72498;BME280;60522;52.536;5.702;2022-12-24T08:53:17;101070.81;;;18.68;56.36
72498;BME280;60522;52.536;5.702;2022-12-24T08:55:42;101049.53;;;18.58;56.57
72498;BME280;60522;52.536;5.702;2022-12-24T08:58:08;101069.69;;;18.69;56.55
72498;BME280;60522;52.536;5.702;2022-12-24T09:00:33;101056.34;;;18.64;56.65
72498;BME280;60522;52.536;5.702;2022-12-24T09:02:58;101043.22;;;18.53;56.66
72498;BME280;60522;52.536;5.702;2022-12-24T09:05:24;101074.34;;;18.68;56.75
72498;BME280;60522;52.536;5.702;2022-12-24T09:07:50;101079.78;;;18.68;56.74
72498;BME280;60522;52.536;5.702;2022-12-24T09:10:15;101063.06;;;18.54;56.71
72498;BME280;60522;52.536;5.702;2022-12-24T09:12:41;101051.09;;;18.43;56.80
72498;BME280;60522;52.536;5.702;2022-12-24T09:15:07;101099.66;;;18.69;56.81
72498;BME280;60522;52.536;5.702;2022-12-24T09:17:33;101083.47;;;18.60;56.91
72498;BME280;60522;52.536;5.702;2022-12-24T09:19:59;101105.88;;;18.69;56.67
72498;BME280;60522;52.536;5.702;2022-12-24T09:22:24;101115.63;;;18.70;56.86
72498;BME280;60522;52.536;5.702;2022-12-24T09:24:52;101110.00;;;18.63;57.42
72498;BME280;60522;52.536;5.702;2022-12-24T09:27:18;101118.38;;;18.70;56.99
72498;BME280;60522;52.536;5.702;2022-12-24T09:29:43;101118.38;;;18.70;56.91
72498;BME280;60522;52.536;5.702;2022-12-24T09:32:08;101115.00;;;18.61;57.13
72498;BME280;60522;52.536;5.702;2022-12-24T09:34:34;101128.13;;;18.72;56.96
72498;BME280;60522;52.536;5.702;2022-12-24T09:36:59;101125.75;;;18.70;56.90
72498;BME280;60522;52.536;5.702;2022-12-24T09:39:27;101127.66;;;18.69;56.97
72498;BME280;60522;52.536;5.702;2022-12-24T09:42:23;101136.31;;;18.72;58.53
72498;BME280;60522;52.536;5.702;2022-12-24T09:47:49;101116.06;;;18.57;58.46
72498;BME280;60522;52.536;5.702;2022-12-24T09:50:45;101147.97;;;18.72;58.59
72498;BME280;60522;52.536;5.702;2022-12-24T09:53:25;101132.06;;;18.58;57.98
72498;BME280;60522;52.536;5.702;2022-12-24T09:56:03;101088.50;;;18.30;58.49
72498;BME280;60522;52.536;5.702;2022-12-24T09:58:35;101153.78;;;18.70;58.14
72498;BME280;60522;52.536;5.702;2022-12-24T10:01:03;101166.28;;;18.72;57.26
72498;BME280;60522;52.536;5.702;2022-12-24T10:03:28;101169.44;;;18.74;57.27
72498;BME280;60522;52.536;5.702;2022-12-24T10:06:17;101169.78;;;18.72;58.42
72498;BME280;60522;52.536;5.702;2022-12-24T10:22:06;101177.59;;;18.74;56.68
72498;BME280;60522;52.536;5.702;2022-12-24T10:24:45;101179.19;;;18.75;56.19
72498;BME280;60522;52.536;5.702;2022-12-24T10:27:15;101168.53;;;18.69;56.02
72498;BME280;60522;52.536;5.702;2022-12-24T10:29:48;101174.53;;;18.75;55.82
72498;BME280;60522;52.536;5.702;2022-12-24T10:32:21;101178.38;;;18.74;55.70
72498;BME280;60522;52.536;5.702;2022-12-24T10:35:03;101178.38;;;18.74;56.12
72498;BME280;60522;52.536;5.702;2022-12-24T10:37:30;101186.22;;;18.76;55.68
72498;BME280;60522;52.536;5.702;2022-12-24T10:39:57;101177.59;;;18.74;55.64
72498;BME280;60522;52.536;5.702;2022-12-24T10:42:27;101182.69;;;18.75;55.54
72498;BME280;60522;52.536;5.702;2022-12-24T10:45:03;101179.97;;;18.75;55.57
72498;BME280;60522;52.536;5.702;2022-12-24T10:47:32;101179.19;;;18.75;55.54
72498;BME280;60522;52.536;5.702;2022-12-24T10:50:28;101184.66;;;18.75;55.44
72498;BME280;60522;52.536;5.702;2022-12-24T10:53:03;101190.44;;;18.73;55.55
72498;BME280;60522;52.536;5.702;2022-12-24T10:55:31;101194.31;;;18.72;55.33
72498;BME280;60522;52.536;5.702;2022-12-24T10:58:00;101175.03;;;18.65;55.29
72498;BME280;60522;52.536;5.702;2022-12-24T11:00:27;101196.69;;;18.74;55.29
72498;BME280;60522;52.536;5.702;2022-12-24T11:05:38;101198.28;;;18.75;55.35
72498;BME280;60522;52.536;5.702;2022-12-24T11:10:30;101201.69;;;18.72;55.20
72498;BME280;60522;52.536;5.702;2022-12-24T11:12:57;101193.25;;;18.61;55.42
72498;BME280;60522;52.536;5.702;2022-12-24T11:15:28;101182.22;;;18.57;55.25
72498;BME280;60522;52.536;5.702;2022-12-24T11:17:58;101197.53;;;18.62;55.46
72498;BME280;60522;52.536;5.702;2022-12-24T11:20:28;101206.94;;;18.64;55.35
72498;BME280;60522;52.536;5.702;2022-12-24T11:22:54;101220.31;;;18.69;55.27
72498;BME280;60522;52.536;5.702;2022-12-24T11:25:26;101219.88;;;18.67;55.40
72498;BME280;60522;52.536;5.702;2022-12-24T11:27:54;101227.69;;;18.69;55.32
72498;BME280;60522;52.536;5.702;2022-12-24T11:30:30;101228.47;;;18.69;55.24
72498;BME280;60522;52.536;5.702;2022-12-24T11:35:25;101236.66;;;18.69;55.39
72498;BME280;60522;52.536;5.702;2022-12-24T11:40:23;101233.50;;;18.67;55.53
72498;BME280;60522;52.536;5.702;2022-12-24T11:42:51;101207.34;;;18.50;55.59
72498;BME280;60522;52.536;5.702;2022-12-24T11:45:25;101230.75;;;18.67;55.60
72498;BME280;60522;52.536;5.702;2022-12-24T11:47:52;101224.69;;;18.58;55.51
72498;BME280;60522;52.536;5.702;2022-12-24T11:52:51;101213.31;;;18.56;55.59
72498;BME280;60522;52.536;5.702;2022-12-24T11:55:25;101233.13;;;18.69;56.08
72498;BME280;60522;52.536;5.702;2022-12-24T12:00:22;101243.69;;;18.70;55.76
72498;BME280;60522;52.536;5.702;2022-12-24T12:02:50;101240.53;;;18.68;55.68
72498;BME280;60522;52.536;5.702;2022-12-24T12:05:22;101211.41;;;18.57;56.39
72498;BME280;60522;52.536;5.702;2022-12-24T12:07:54;101214.81;;;18.53;56.01
72498;BME280;60522;52.536;5.702;2022-12-24T12:10:24;101240.53;;;18.68;55.67
72498;BME280;60522;52.536;5.702;2022-12-24T12:13:13;101238.84;;;18.64;55.92
72498;BME280;60522;52.536;5.702;2022-12-24T12:15:43;101237.81;;;18.68;56.07
72498;BME280;60522;52.536;5.702;2022-12-24T12:18:15;101237.81;;;18.68;55.99
72498;BME280;60522;52.536;5.702;2022-12-24T12:20:50;101238.59;;;18.69;55.93
72498;BME280;60522;52.536;5.702;2022-12-24T12:25:54;101246.75;;;18.69;55.73
72498;BME280;60522;52.536;5.702;2022-12-24T12:33:54;101239.84;;;18.59;56.22
72498;BME280;60522;52.536;5.702;2022-12-24T12:36:27;101265.13;;;18.72;56.07
72498;BME280;60522;52.536;5.702;2022-12-24T12:38:54;101266.47;;;18.78;56.04
72498;BME280;60522;52.536;5.702;2022-12-24T12:41:31;101273.09;;;18.77;56.57
72498;BME280;60522;52.536;5.702;2022-12-24T12:52:04;101264.25;;;18.68;57.31
72498;BME280;60522;52.536;5.702;2022-12-24T12:57:32;101284.50;;;18.83;56.82
72498;BME280;60522;52.536;5.702;2022-12-24T13:00:05;101277.50;;;18.82;56.71
72498;BME280;60522;52.536;5.702;2022-12-24T13:15:48;101294.50;;;18.91;56.04
72498;BME280;60522;52.536;5.702;2022-12-24T13:20:47;101300.41;;;18.93;56.05
72498;BME280;60522;52.536;5.702;2022-12-24T13:23:16;101306.31;;;18.95;56.16
72498;BME280;60522;52.536;5.702;2022-12-24T13:25:45;101307.09;;;18.96;56.42
72498;BME280;60522;52.536;5.702;2022-12-24T13:28:15;101308.00;;;19.00;56.48
72498;BME280;60522;52.536;5.702;2022-12-24T13:30:41;101310.72;;;19.00;56.25
72498;BME280;60522;52.536;5.702;2022-12-24T13:36:08;101324.00;;;19.01;56.45
72498;BME280;60522;52.536;5.702;2022-12-24T13:38:40;101319.41;;;19.05;56.77
72498;BME280;60522;52.536;5.702;2022-12-24T13:46:58;101317.84;;;19.04;56.86
72498;BME280;60522;52.536;5.702;2022-12-24T13:52:20;101342.38;;;19.04;56.73
72498;BME280;60522;52.536;5.702;2022-12-24T14:08:15;101353.72;;;19.07;56.14
72498;BME280;60522;52.536;5.702;2022-12-24T14:11:12;101356.47;;;19.07;56.54
72498;BME280;60522;52.536;5.702;2022-12-24T14:16:07;101369.66;;;19.04;56.13
72498;BME280;60522;52.536;5.702;2022-12-24T14:18:47;101369.75;;;19.08;56.39
72498;BME280;60522;52.536;5.702;2022-12-24T14:21:17;101370.34;;;19.01;56.28
72498;BME280;60522;52.536;5.702;2022-12-24T14:26:15;101361.28;;;18.85;56.58
72498;BME280;60522;52.536;5.702;2022-12-24T14:28:45;101380.69;;;18.96;56.46
72498;BME280;60522;52.536;5.702;2022-12-24T14:31:16;101367.53;;;18.85;56.57
72498;BME280;60522;52.536;5.702;2022-12-24T14:33:41;101390.34;;;18.93;56.50
72498;BME280;60522;52.536;5.702;2022-12-24T14:36:08;101391.03;;;18.90;56.59
72498;BME280;60522;52.536;5.702;2022-12-24T14:38:33;101393.16;;;18.84;56.79
72498;BME280;60522;52.536;5.702;2022-12-24T14:52:07;101413.75;;;18.82;56.58
72498;BME280;60522;52.536;5.702;2022-12-24T14:54:39;101414.88;;;18.81;56.63
72498;BME280;60522;52.536;5.702;2022-12-24T14:59:42;101419.06;;;18.78;56.50
72498;BME280;60522;52.536;5.702;2022-12-24T15:07:45;101429.88;;;18.75;56.27